Terminal Aerodrome Forecast
Issued by NWS Northern Indiana

Home | Current Version | Previous Version | Text Only | Print | Product List | Glossary On
Versions: 1 2 3 4 5 6 7 8 9 10 11 12 13 14 15 16
110
FTUS43 KIWX 121921 AAA
TAFFWA
TAF AMD
KFWA 121921Z 1219/1318 27014KT 3SM -SN OVC030
      TEMPO 1219/1221 1SM -SN OVC015
     FM122100 29017G27KT 5SM -SHSN OVC030
     FM130400 31010KT P6SM VCSH BKN035=

USA.gov is the U.S. government's official web portal to all federal, state and local government web resources and services.